»·PEaware :: N6423L KVNY-KSNA

N6423L :: KVNY-KSNA

FLIGHT INFORMATION

Flight Status: Arrived
Operator: Privately registered:
United States
More flights under this callsign
Pilot: Alexander M. (19327)
Aircraft: BEECH AIRCRAFT DEBONAIR BONANZA
(BE33)
More flights by this aircraft type
Origin: KVNY Van Nuys
United States
Destination: KSNA John Wayne-Orange Co
United States
More flights between these airports :: More routes between these airports
Route: +
File this flight plan on PilotEdge
Remarks: CA10
Altitude:
(Current/Filed)
7,500ft
Speed:
(Current/Filed)
0kts
Departed: 17-Oct-18 05:37 PM
Arrived: 17-Oct-18 06:21 PM
Distance/Time
Traveled:
45nm/0:44
Distance/Time
To Go:
Arrived

Flight Plot

Page will automatically refresh every two minutes.


Map Options




Map Legend


Flown Route
Filed Route
Departure Airport
Arrival Airport
Navaid (VOR, NDB)
Fix

Horizontal Profiles

Position Reports

Time Latitude Longitude Heading Altitude Ground
Speed
17-Oct-18 17:19 34.209001 -118.491994 92 779ft 0kts
17-Oct-18 17:20 34.209001 -118.491994 92 779ft 0kts
17-Oct-18 17:21 34.209001 -118.491994 92 779ft 0kts
17-Oct-18 17:22 34.209001 -118.491994 92 779ft 0kts
17-Oct-18 17:23 34.209001 -118.491994 92 779ft 0kts
17-Oct-18 17:24 34.209001 -118.491994 92 779ft 0kts
17-Oct-18 17:25 34.209001 -118.491994 92 779ft 0kts
17-Oct-18 17:26 34.209001 -118.491994 92 779ft 0kts
17-Oct-18 17:27 34.209001 -118.491994 92 779ft 0kts
17-Oct-18 17:28 34.209001 -118.491994 92 779ft 0kts
17-Oct-18 17:29 34.209001 -118.491994 92 779ft 0kts
17-Oct-18 17:30 34.209001 -118.491994 92 779ft 0kts
17-Oct-18 17:31 34.209001 -118.491994 92 779ft 0kts
17-Oct-18 17:32 34.209001 -118.491994 92 779ft 0kts
17-Oct-18 17:33 34.208994 -118.491805 87 779ft 0kts
17-Oct-18 17:34 34.211681 -118.491698 356 779ft 10kts
17-Oct-18 17:35 34.215164 -118.492079 351 779ft 14kts
17-Oct-18 17:36 34.216523 -118.492229 355 779ft 12kts
17-Oct-18 17:37 34.218914 -118.492106 70 779ft 0kts
17-Oct-18 17:38 34.218915 -118.492106 71 779ft 0kts
17-Oct-18 17:39 34.216471 -118.490983 175 779ft 54kts
17-Oct-18 17:40 34.194987 -118.490204 201 1551ft 86kts
17-Oct-18 17:41 34.192550 -118.513072 345 2382ft 111kts
17-Oct-18 17:42 34.222878 -118.516640 357 3379ft 107kts
17-Oct-18 17:43 34.252809 -118.510654 28 3630ft 128kts
17-Oct-18 17:44 34.279664 -118.527397 285 3955ft 121kts
17-Oct-18 17:45 34.261980 -118.544789 140 3481ft 116kts
17-Oct-18 17:46 34.237563 -118.520447 138 3091ft 118kts
17-Oct-18 17:47 34.213088 -118.496199 149 2721ft 118kts
17-Oct-18 17:48 34.181148 -118.484101 168 2426ft 140kts
17-Oct-18 17:49 34.145050 -118.473480 163 2266ft 127kts
17-Oct-18 17:50 34.120719 -118.491827 241 2217ft 128kts
17-Oct-18 17:51 34.107523 -118.517238 225 3169ft 98kts
17-Oct-18 17:52 34.095223 -118.535134 305 4272ft 76kts
17-Oct-18 17:53 34.121124 -118.544869 356 4815ft 121kts
17-Oct-18 17:54 34.157601 -118.547511 357 5337ft 141kts
17-Oct-18 17:55 34.161927 -118.518695 163 5494ft 149kts
17-Oct-18 17:56 34.120837 -118.522154 190 5491ft 163kts
17-Oct-18 17:57 34.111506 -118.556773 283 5829ft 145kts
17-Oct-18 17:58 34.144844 -118.580260 340 5478ft 128kts
17-Oct-18 17:59 34.166998 -118.554546 81 5489ft 136kts
17-Oct-18 18:00 34.138392 -118.528713 162 5496ft 154kts
17-Oct-18 18:01 34.097025 -118.508159 158 5496ft 168kts
17-Oct-18 18:02 34.054915 -118.485179 162 5497ft 172kts
17-Oct-18 18:03 34.010618 -118.464258 162 5496ft 174kts
17-Oct-18 18:04 33.967400 -118.444472 162 5498ft 175kts
17-Oct-18 18:05 33.928002 -118.416504 137 5503ft 179kts
17-Oct-18 18:06 33.896400 -118.381063 144 5497ft 180kts
17-Oct-18 18:07 33.867966 -118.361732 158 5495ft 178kts
17-Oct-18 18:08 33.830803 -118.326039 134 5496ft 181kts
17-Oct-18 18:09 33.794962 -118.284289 136 5490ft 182kts
17-Oct-18 18:10 33.758590 -118.242113 136 5495ft 182kts
17-Oct-18 18:11 33.720325 -118.203257 141 5494ft 183kts
17-Oct-18 18:12 33.680622 -118.165132 139 5088ft 184kts
17-Oct-18 18:13 33.644283 -118.122790 134 4589ft 183kts
17-Oct-18 18:14 33.621215 -118.078219 70 4027ft 141kts
17-Oct-18 18:15 33.646493 -118.053544 16 2893ft 117kts
17-Oct-18 18:16 33.664789 -118.029344 87 2225ft 126kts
17-Oct-18 18:17 33.649870 -117.991844 126 2541ft 128kts
17-Oct-18 18:18 33.660475 -117.960070 34 3117ft 126kts
17-Oct-18 18:19 33.685638 -117.933273 49 2786ft 124kts
17-Oct-18 18:20 33.701663 -117.902143 68 2199ft 111kts
17-Oct-18 18:21 33.701069 -117.870718 114 1125ft 97kts
17-Oct-18 18:22 33.685435 -117.862628 209 223ft 67kts
17-Oct-18 18:23 33.675622 -117.868844 195 60ft 10kts
17-Oct-18 18:24 33.673772 -117.867277 116 60ft 10kts
17-Oct-18 18:25 33.672764 -117.867486 142 60ft 4kts
17-Oct-18 18:26 33.671874 -117.867108 212 60ft 0kts
17-Oct-18 18:27 33.671874 -117.867108 212 60ft 0kts
17-Oct-18 18:28 33.671874 -117.867108 212 60ft 0kts
17-Oct-18 18:29 33.671874 -117.867108 212 60ft 0kts
17-Oct-18 18:30 33.671874 -117.867108 212 60ft 0kts
17-Oct-18 18:31 33.671874 -117.867108 212 60ft 0kts
17-Oct-18 18:32 33.671874 -117.867108 212 60ft 0kts
17-Oct-18 18:33 33.671874 -117.867108 212 60ft 0kts
17-Oct-18 18:34 33.671874 -117.867108 212 60ft 0kts
17-Oct-18 18:35 33.671874 -117.867108 212 60ft 0kts

Navigation Log

Ident Type
1. KVNY Airport
2. KSNA Airport